sensor_id;sensor_type;location;lat;lon;timestamp;temperature;humidity
76040;SHT30;64736;50.462;4.850;2023-07-31T00:00:27;17.15;88.61
76040;SHT30;64736;50.462;4.850;2023-07-31T00:02:54;17.18;87.98
76040;SHT30;64736;50.462;4.850;2023-07-31T00:05:20;17.24;87.79
76040;SHT30;64736;50.462;4.850;2023-07-31T00:07:46;17.25;88.03
76040;SHT30;64736;50.462;4.850;2023-07-31T00:10:12;17.25;87.66
76040;SHT30;64736;50.462;4.850;2023-07-31T00:12:42;17.31;87.44
76040;SHT30;64736;50.462;4.850;2023-07-31T00:15:09;17.31;87.40
76040;SHT30;64736;50.462;4.850;2023-07-31T00:17:36;17.31;87.27
76040;SHT30;64736;50.462;4.850;2023-07-31T00:20:02;17.32;86.85
76040;SHT30;64736;50.462;4.850;2023-07-31T00:22:28;17.36;86.98
76040;SHT30;64736;50.462;4.850;2023-07-31T00:24:53;17.38;86.84
76040;SHT30;64736;50.462;4.850;2023-07-31T00:27:19;17.39;86.75
76040;SHT30;64736;50.462;4.850;2023-07-31T00:29:45;17.42;86.81
76040;SHT30;64736;50.462;4.850;2023-07-31T00:32:11;17.41;86.69
76040;SHT30;64736;50.462;4.850;2023-07-31T00:34:37;17.36;86.68
76040;SHT30;64736;50.462;4.850;2023-07-31T00:37:03;17.39;86.65
76040;SHT30;64736;50.462;4.850;2023-07-31T00:39:30;17.39;86.79
76040;SHT30;64736;50.462;4.850;2023-07-31T00:41:56;17.38;86.70
76040;SHT30;64736;50.462;4.850;2023-07-31T00:44:22;17.38;86.65
76040;SHT30;64736;50.462;4.850;2023-07-31T00:46:48;17.39;86.69
76040;SHT30;64736;50.462;4.850;2023-07-31T00:49:15;17.45;86.47
76040;SHT30;64736;50.462;4.850;2023-07-31T00:51:41;17.43;86.31
76040;SHT30;64736;50.462;4.850;2023-07-31T00:54:07;17.48;85.78
76040;SHT30;64736;50.462;4.850;2023-07-31T00:56:33;17.53;86.09
76040;SHT30;64736;50.462;4.850;2023-07-31T00:58:59;17.52;85.98
76040;SHT30;64736;50.462;4.850;2023-07-31T01:01:24;17.53;86.00
76040;SHT30;64736;50.462;4.850;2023-07-31T01:03:52;17.53;86.03
76040;SHT30;64736;50.462;4.850;2023-07-31T01:06:36;17.55;85.97
76040;SHT30;64736;50.462;4.850;2023-07-31T01:12:01;17.58;85.89
76040;SHT30;64736;50.462;4.850;2023-07-31T01:14:28;17.53;85.85
76040;SHT30;64736;50.462;4.850;2023-07-31T01:16:54;17.53;86.09
76040;SHT30;64736;50.462;4.850;2023-07-31T01:19:23;17.56;86.02
76040;SHT30;64736;50.462;4.850;2023-07-31T01:25:31;17.51;86.23
76040;SHT30;64736;50.462;4.850;2023-07-31T01:28:06;17.46;86.44
76040;SHT30;64736;50.462;4.850;2023-07-31T01:30:33;17.42;86.56
76040;SHT30;64736;50.462;4.850;2023-07-31T01:33:02;17.45;86.40
76040;SHT30;64736;50.462;4.850;2023-07-31T01:35:34;17.42;86.55
76040;SHT30;64736;50.462;4.850;2023-07-31T01:38:00;17.39;86.67
76040;SHT30;64736;50.462;4.850;2023-07-31T01:40:26;17.39;86.78
76040;SHT30;64736;50.462;4.850;2023-07-31T01:42:51;17.42;86.87
76040;SHT30;64736;50.462;4.850;2023-07-31T01:45:17;17.38;86.83
76040;SHT30;64736;50.462;4.850;2023-07-31T01:47:46;17.35;86.91
76040;SHT30;64736;50.462;4.850;2023-07-31T01:50:11;17.36;86.90
76040;SHT30;64736;50.462;4.850;2023-07-31T01:52:37;17.38;86.90
76040;SHT30;64736;50.462;4.850;2023-07-31T01:55:03;17.36;86.87
76040;SHT30;64736;50.462;4.850;2023-07-31T01:57:29;17.36;86.85
76040;SHT30;64736;50.462;4.850;2023-07-31T01:59:55;17.36;86.57
76040;SHT30;64736;50.462;4.850;2023-07-31T02:02:22;17.36;86.40
76040;SHT30;64736;50.462;4.850;2023-07-31T02:04:48;17.38;86.44
76040;SHT30;64736;50.462;4.850;2023-07-31T02:07:14;17.38;86.58
76040;SHT30;64736;50.462;4.850;2023-07-31T02:09:40;17.35;86.54
76040;SHT30;64736;50.462;4.850;2023-07-31T02:12:06;17.36;86.58
76040;SHT30;64736;50.462;4.850;2023-07-31T02:14:34;17.36;86.59
76040;SHT30;64736;50.462;4.850;2023-07-31T02:17:00;17.39;86.57
76040;SHT30;64736;50.462;4.850;2023-07-31T02:19:26;17.38;86.47
76040;SHT30;64736;50.462;4.850;2023-07-31T02:21:51;17.38;86.51
76040;SHT30;64736;50.462;4.850;2023-07-31T02:24:17;17.38;86.56
76040;SHT30;64736;50.462;4.850;2023-07-31T02:26:43;17.34;86.51
76040;SHT30;64736;50.462;4.850;2023-07-31T02:29:09;17.38;86.56
76040;SHT30;64736;50.462;4.850;2023-07-31T02:31:34;17.38;86.47
76040;SHT30;64736;50.462;4.850;2023-07-31T02:34:00;17.36;86.12
76040;SHT30;64736;50.462;4.850;2023-07-31T02:36:26;17.42;86.15
76040;SHT30;64736;50.462;4.850;2023-07-31T02:38:52;17.48;85.88
76040;SHT30;64736;50.462;4.850;2023-07-31T02:41:17;17.48;85.73
76040;SHT30;64736;50.462;4.850;2023-07-31T02:43:43;17.46;85.66
76040;SHT30;64736;50.462;4.850;2023-07-31T02:46:09;17.45;85.77
76040;SHT30;64736;50.462;4.850;2023-07-31T02:48:35;17.48;85.44
76040;SHT30;64736;50.462;4.850;2023-07-31T02:51:01;17.46;85.57
76040;SHT30;64736;50.462;4.850;2023-07-31T02:53:26;17.46;85.53
76040;SHT30;64736;50.462;4.850;2023-07-31T02:55:52;17.45;85.69
76040;SHT30;64736;50.462;4.850;2023-07-31T02:58:18;17.48;85.51
76040;SHT30;64736;50.462;4.850;2023-07-31T03:00:44;17.48;85.31
76040;SHT30;64736;50.462;4.850;2023-07-31T03:03:10;17.43;85.51
76040;SHT30;64736;50.462;4.850;2023-07-31T03:05:36;17.43;85.33
76040;SHT30;64736;50.462;4.850;2023-07-31T03:08:02;17.43;85.57
76040;SHT30;64736;50.462;4.850;2023-07-31T03:10:28;17.43;85.55
76040;SHT30;64736;50.462;4.850;2023-07-31T03:12:53;17.43;85.69
76040;SHT30;64736;50.462;4.850;2023-07-31T03:15:19;17.38;85.72
76040;SHT30;64736;50.462;4.850;2023-07-31T03:17:45;17.39;85.91
76040;SHT30;64736;50.462;4.850;2023-07-31T03:20:11;17.38;86.00
76040;SHT30;64736;50.462;4.850;2023-07-31T03:22:37;17.41;86.09
76040;SHT30;64736;50.462;4.850;2023-07-31T03:25:03;17.43;85.97
76040;SHT30;64736;50.462;4.850;2023-07-31T03:27:29;17.48;85.88
76040;SHT30;64736;50.462;4.850;2023-07-31T03:29:55;17.46;85.96
76040;SHT30;64736;50.462;4.850;2023-07-31T03:32:21;17.45;85.98
76040;SHT30;64736;50.462;4.850;2023-07-31T03:34:46;17.45;86.05
76040;SHT30;64736;50.462;4.850;2023-07-31T03:37:12;17.42;86.01
76040;SHT30;64736;50.462;4.850;2023-07-31T03:39:38;17.45;86.13
76040;SHT30;64736;50.462;4.850;2023-07-31T03:42:04;17.42;86.20
76040;SHT30;64736;50.462;4.850;2023-07-31T03:44:30;17.43;86.35
76040;SHT30;64736;50.462;4.850;2023-07-31T03:46:55;17.45;85.98
76040;SHT30;64736;50.462;4.850;2023-07-31T03:49:21;17.43;86.23
76040;SHT30;64736;50.462;4.850;2023-07-31T03:51:47;17.42;86.25
76040;SHT30;64736;50.462;4.850;2023-07-31T03:54:13;17.39;86.27
76040;SHT30;64736;50.462;4.850;2023-07-31T03:56:39;17.39;86.33
76040;SHT30;64736;50.462;4.850;2023-07-31T03:59:05;17.36;86.34
76040;SHT30;64736;50.462;4.850;2023-07-31T04:01:30;17.38;86.33
76040;SHT30;64736;50.462;4.850;2023-07-31T04:03:56;17.34;86.25
76040;SHT30;64736;50.462;4.850;2023-07-31T04:06:22;17.34;86.17
76040;SHT30;64736;50.462;4.850;2023-07-31T04:08:48;17.36;85.74
76040;SHT30;64736;50.462;4.850;2023-07-31T04:11:13;17.36;85.83
76040;SHT30;64736;50.462;4.850;2023-07-31T04:13:39;17.35;85.80
76040;SHT30;64736;50.462;4.850;2023-07-31T04:16:05;17.39;85.75
76040;SHT30;64736;50.462;4.850;2023-07-31T04:18:31;17.39;85.76
76040;SHT30;64736;50.462;4.850;2023-07-31T04:20:58;17.41;85.49
76040;SHT30;64736;50.462;4.850;2023-07-31T04:23:29;17.41;85.56
76040;SHT30;64736;50.462;4.850;2023-07-31T04:25:55;17.43;85.51
76040;SHT30;64736;50.462;4.850;2023-07-31T04:28:21;17.43;85.34
76040;SHT30;64736;50.462;4.850;2023-07-31T04:30:47;17.45;84.97
76040;SHT30;64736;50.462;4.850;2023-07-31T04:33:13;17.45;85.08
76040;SHT30;64736;50.462;4.850;2023-07-31T04:35:39;17.39;85.17
76040;SHT30;64736;50.462;4.850;2023-07-31T04:38:05;17.39;85.46
76040;SHT30;64736;50.462;4.850;2023-07-31T04:40:31;17.43;86.19
76040;SHT30;64736;50.462;4.850;2023-07-31T04:42:57;17.38;86.02
76040;SHT30;64736;50.462;4.850;2023-07-31T04:45:22;17.36;86.61
76040;SHT30;64736;50.462;4.850;2023-07-31T04:47:48;17.31;87.32
76040;SHT30;64736;50.462;4.850;2023-07-31T04:50:14;17.24;87.79
76040;SHT30;64736;50.462;4.850;2023-07-31T04:52:40;17.10;88.35
76040;SHT30;64736;50.462;4.850;2023-07-31T04:55:05;17.07;88.37
76040;SHT30;64736;50.462;4.850;2023-07-31T04:57:31;17.06;88.15
76040;SHT30;64736;50.462;4.850;2023-07-31T04:59:57;17.02;87.93
76040;SHT30;64736;50.462;4.850;2023-07-31T05:02:23;17.04;87.29
76040;SHT30;64736;50.462;4.850;2023-07-31T05:04:50;17.13;87.18
76040;SHT30;64736;50.462;4.850;2023-07-31T05:07:17;17.15;86.87
76040;SHT30;64736;50.462;4.850;2023-07-31T05:09:42;17.18;86.65
76040;SHT30;64736;50.462;4.850;2023-07-31T05:12:08;17.20;86.35
76040;SHT30;64736;50.462;4.850;2023-07-31T05:14:34;17.24;86.39
76040;SHT30;64736;50.462;4.850;2023-07-31T05:17:00;17.24;86.08
76040;SHT30;64736;50.462;4.850;2023-07-31T05:19:25;17.21;85.90
76040;SHT30;64736;50.462;4.850;2023-07-31T05:21:51;17.22;85.88
76040;SHT30;64736;50.462;4.850;2023-07-31T05:24:17;17.28;85.90
76040;SHT30;64736;50.462;4.850;2023-07-31T05:26:43;17.27;85.67
76040;SHT30;64736;50.462;4.850;2023-07-31T05:29:08;17.35;85.26
76040;SHT30;64736;50.462;4.850;2023-07-31T05:31:34;17.35;85.96
76040;SHT30;64736;50.462;4.850;2023-07-31T05:34:00;17.30;87.54
76040;SHT30;64736;50.462;4.850;2023-07-31T05:36:26;17.17;88.20
76040;SHT30;64736;50.462;4.850;2023-07-31T05:38:51;17.10;87.49
76040;SHT30;64736;50.462;4.850;2023-07-31T05:41:17;17.10;86.78
76040;SHT30;64736;50.462;4.850;2023-07-31T05:43:43;17.15;86.40
76040;SHT30;64736;50.462;4.850;2023-07-31T05:46:09;17.24;85.99
76040;SHT30;64736;50.462;4.850;2023-07-31T05:48:35;17.30;85.82
76040;SHT30;64736;50.462;4.850;2023-07-31T05:51:01;17.32;88.31
76040;SHT30;64736;50.462;4.850;2023-07-31T05:53:27;17.21;88.44
76040;SHT30;64736;50.462;4.850;2023-07-31T05:55:52;17.20;88.22
76040;SHT30;64736;50.462;4.850;2023-07-31T05:58:18;17.17;87.21
76040;SHT30;64736;50.462;4.850;2023-07-31T06:00:44;17.25;86.27
76040;SHT30;64736;50.462;4.850;2023-07-31T10:20:02;18.79;84.96
76040;SHT30;64736;50.462;4.850;2023-07-31T10:22:30;18.86;84.27
76040;SHT30;64736;50.462;4.850;2023-07-31T10:24:58;18.92;83.61
76040;SHT30;64736;50.462;4.850;2023-07-31T10:27:24;19.02;83.76
76040;SHT30;64736;50.462;4.850;2023-07-31T10:29:51;19.06;82.43
76040;SHT30;64736;50.462;4.850;2023-07-31T10:32:18;19.07;82.07
76040;SHT30;64736;50.462;4.850;2023-07-31T10:34:44;19.14;81.70
76040;SHT30;64736;50.462;4.850;2023-07-31T10:37:27;19.33;81.24
76040;SHT30;64736;50.462;4.850;2023-07-31T10:40:05;19.44;81.24
76040;SHT30;64736;50.462;4.850;2023-07-31T10:45:08;19.81;79.96
76040;SHT30;64736;50.462;4.850;2023-07-31T10:47:44;19.89;79.15
76040;SHT30;64736;50.462;4.850;2023-07-31T10:50:16;19.79;79.23
76040;SHT30;64736;50.462;4.850;2023-07-31T10:52:48;20.15;78.83
76040;SHT30;64736;50.462;4.850;2023-07-31T10:55:41;20.40;78.25
76040;SHT30;64736;50.462;4.850;2023-07-31T10:58:14;20.67;77.03
76040;SHT30;64736;50.462;4.850;2023-07-31T11:00:44;20.98;76.46
76040;SHT30;64736;50.462;4.850;2023-07-31T11:03:17;20.61;77.01
76040;SHT30;64736;50.462;4.850;2023-07-31T11:05:49;20.58;76.87
76040;SHT30;64736;50.462;4.850;2023-07-31T11:10:49;20.39;77.28
76040;SHT30;64736;50.462;4.850;2023-07-31T11:13:15;20.32;78.01
76040;SHT30;64736;50.462;4.850;2023-07-31T11:15:40;20.40;77.77
76040;SHT30;64736;50.462;4.850;2023-07-31T11:18:06;20.29;77.89
76040;SHT30;64736;50.462;4.850;2023-07-31T11:20:35;20.46;77.65
76040;SHT30;64736;50.462;4.850;2023-07-31T11:23:11;20.37;77.37
76040;SHT30;64736;50.462;4.850;2023-07-31T11:25:39;20.37;77.39
76040;SHT30;64736;50.462;4.850;2023-07-31T11:28:14;20.44;76.86
76040;SHT30;64736;50.462;4.850;2023-07-31T11:30:41;20.66;76.90
76040;SHT30;64736;50.462;4.850;2023-07-31T11:33:08;20.46;76.27
76040;SHT30;64736;50.462;4.850;2023-07-31T11:35:43;20.34;77.38
76040;SHT30;64736;50.462;4.850;2023-07-31T11:38:11;20.53;77.41
76040;SHT30;64736;50.462;4.850;2023-07-31T11:40:42;20.44;76.59
76040;SHT30;64736;50.462;4.850;2023-07-31T11:43:08;20.36;77.77
76040;SHT30;64736;50.462;4.850;2023-07-31T11:45:33;20.22;77.95
76040;SHT30;64736;50.462;4.850;2023-07-31T11:48:01;20.29;77.49
76040;SHT30;64736;50.462;4.850;2023-07-31T11:50:27;20.22;77.52
76040;SHT30;64736;50.462;4.850;2023-07-31T11:52:57;20.39;77.32
76040;SHT30;64736;50.462;4.850;2023-07-31T11:55:25;20.29;78.21
76040;SHT30;64736;50.462;4.850;2023-07-31T11:57:51;20.05;78.33
76040;SHT30;64736;50.462;4.850;2023-07-31T12:00:18;20.04;78.60
76040;SHT30;64736;50.462;4.850;2023-07-31T12:02:45;19.96;78.47
76040;SHT30;64736;50.462;4.850;2023-07-31T12:05:12;20.13;78.50
76040;SHT30;64736;50.462;4.850;2023-07-31T12:10:42;20.13;78.18
76040;SHT30;64736;50.462;4.850;2023-07-31T12:13:11;20.22;77.71
76040;SHT30;64736;50.462;4.850;2023-07-31T12:15:40;20.28;77.34
76040;SHT30;64736;50.462;4.850;2023-07-31T12:18:08;20.36;77.49
76040;SHT30;64736;50.462;4.850;2023-07-31T12:20:34;20.57;77.04
76040;SHT30;64736;50.462;4.850;2023-07-31T12:22:59;20.76;76.37
76040;SHT30;64736;50.462;4.850;2023-07-31T12:25:34;20.78;76.28
76040;SHT30;64736;50.462;4.850;2023-07-31T12:28:04;20.81;76.28
76040;SHT30;64736;50.462;4.850;2023-07-31T12:30:33;20.77;76.07
76040;SHT30;64736;50.462;4.850;2023-07-31T12:33:07;20.91;76.02
76040;SHT30;64736;50.462;4.850;2023-07-31T12:35:38;20.76;76.25
76040;SHT30;64736;50.462;4.850;2023-07-31T12:38:05;20.54;76.51
76040;SHT30;64736;50.462;4.850;2023-07-31T12:40:32;20.33;77.35
76040;SHT30;64736;50.462;4.850;2023-07-31T12:43:00;20.10;77.54
76040;SHT30;64736;50.462;4.850;2023-07-31T12:45:26;20.04;78.09
76040;SHT30;64736;50.462;4.850;2023-07-31T12:47:52;20.09;78.04
76040;SHT30;64736;50.462;4.850;2023-07-31T12:50:18;20.04;77.87
76040;SHT30;64736;50.462;4.850;2023-07-31T12:52:43;19.98;78.07
76040;SHT30;64736;50.462;4.850;2023-07-31T12:55:09;20.01;78.37
76040;SHT30;64736;50.462;4.850;2023-07-31T12:57:36;20.04;78.19
76040;SHT30;64736;50.462;4.850;2023-07-31T13:00:02;20.06;78.08
76040;SHT30;64736;50.462;4.850;2023-07-31T13:02:28;20.22;78.56
76040;SHT30;64736;50.462;4.850;2023-07-31T13:04:54;20.29;79.58
76040;SHT30;64736;50.462;4.850;2023-07-31T13:07:19;20.10;80.95
76040;SHT30;64736;50.462;4.850;2023-07-31T13:09:45;20.25;80.21
76040;SHT30;64736;50.462;4.850;2023-07-31T13:12:20;20.10;80.83
76040;SHT30;64736;50.462;4.850;2023-07-31T13:14:45;20.18;80.49
76040;SHT30;64736;50.462;4.850;2023-07-31T13:17:11;20.22;80.54
76040;SHT30;64736;50.462;4.850;2023-07-31T13:19:37;20.09;80.73
76040;SHT30;64736;50.462;4.850;2023-07-31T13:22:03;20.05;80.87
76040;SHT30;64736;50.462;4.850;2023-07-31T13:24:29;19.93;81.21
76040;SHT30;64736;50.462;4.850;2023-07-31T13:26:56;19.82;81.32
76040;SHT30;64736;50.462;4.850;2023-07-31T13:29:21;19.71;82.98
76040;SHT30;64736;50.462;4.850;2023-07-31T13:31:47;19.41;88.63
76040;SHT30;64736;50.462;4.850;2023-07-31T13:34:13;19.09;90.34
76040;SHT30;64736;50.462;4.850;2023-07-31T13:36:39;18.59;91.34
76040;SHT30;64736;50.462;4.850;2023-07-31T13:39:04;18.26;92.56
76040;SHT30;64736;50.462;4.850;2023-07-31T13:41:30;18.14;93.42
76040;SHT30;64736;50.462;4.850;2023-07-31T13:43:55;18.10;93.04
76040;SHT30;64736;50.462;4.850;2023-07-31T13:46:21;18.13;93.38
76040;SHT30;64736;50.462;4.850;2023-07-31T13:48:47;18.09;93.15
76040;SHT30;64736;50.462;4.850;2023-07-31T13:51:12;18.17;93.75
76040;SHT30;64736;50.462;4.850;2023-07-31T13:53:38;18.10;93.06
76040;SHT30;64736;50.462;4.850;2023-07-31T13:56:03;18.06;92.44
76040;SHT30;64736;50.462;4.850;2023-07-31T13:58:29;18.06;92.05
76040;SHT30;64736;50.462;4.850;2023-07-31T14:00:54;18.11;92.08
76040;SHT30;64736;50.462;4.850;2023-07-31T14:03:20;18.07;91.59
76040;SHT30;64736;50.462;4.850;2023-07-31T14:05:52;18.10;91.88
76040;SHT30;64736;50.462;4.850;2023-07-31T14:08:18;18.16;92.76
76040;SHT30;64736;50.462;4.850;2023-07-31T14:10:44;18.11;94.65
76040;SHT30;64736;50.462;4.850;2023-07-31T14:13:09;17.94;95.04
76040;SHT30;64736;50.462;4.850;2023-07-31T14:15:35;17.78;95.95
76040;SHT30;64736;50.462;4.850;2023-07-31T14:18:01;17.79;96.49
76040;SHT30;64736;50.462;4.850;2023-07-31T14:20:28;17.70;96.56
76040;SHT30;64736;50.462;4.850;2023-07-31T14:22:53;17.82;96.56
76040;SHT30;64736;50.462;4.850;2023-07-31T14:25:19;17.75;96.20
76040;SHT30;64736;50.462;4.850;2023-07-31T14:27:44;17.82;96.54
76040;SHT30;64736;50.462;4.850;2023-07-31T14:30:10;17.66;96.39
76040;SHT30;64736;50.462;4.850;2023-07-31T14:32:36;17.62;96.54
76040;SHT30;64736;50.462;4.850;2023-07-31T14:35:03;17.63;96.81
76040;SHT30;64736;50.462;4.850;2023-07-31T14:37:40;17.53;96.51
76040;SHT30;64736;50.462;4.850;2023-07-31T14:40:07;17.62;96.42
76040;SHT30;64736;50.462;4.850;2023-07-31T14:42:34;18.03;96.47
76040;SHT30;64736;50.462;4.850;2023-07-31T14:44:59;18.09;95.94
76040;SHT30;64736;50.462;4.850;2023-07-31T14:47:25;18.00;95.53
76040;SHT30;64736;50.462;4.850;2023-07-31T14:49:51;18.03;95.57
76040;SHT30;64736;50.462;4.850;2023-07-31T14:52:16;17.91;95.81
76040;SHT30;64736;50.462;4.850;2023-07-31T14:54:42;17.89;95.58
76040;SHT30;64736;50.462;4.850;2023-07-31T14:57:08;17.80;95.35
76040;SHT30;64736;50.462;4.850;2023-07-31T14:59:33;17.87;95.41
76040;SHT30;64736;50.462;4.850;2023-07-31T15:01:59;18.00;95.85
76040;SHT30;64736;50.462;4.850;2023-07-31T15:04:24;17.89;95.23
76040;SHT30;64736;50.462;4.850;2023-07-31T15:06:51;17.79;95.14
76040;SHT30;64736;50.462;4.850;2023-07-31T15:09:17;17.78;95.37
76040;SHT30;64736;50.462;4.850;2023-07-31T15:11:43;17.69;94.87
76040;SHT30;64736;50.462;4.850;2023-07-31T15:14:09;17.75;95.33
76040;SHT30;64736;50.462;4.850;2023-07-31T15:16:34;17.75;95.61
76040;SHT30;64736;50.462;4.850;2023-07-31T15:19:00;17.75;95.65
76040;SHT30;64736;50.462;4.850;2023-07-31T15:21:26;17.62;96.00
76040;SHT30;64736;50.462;4.850;2023-07-31T15:23:52;17.56;96.48
76040;SHT30;64736;50.462;4.850;2023-07-31T15:26:18;17.59;96.79
76040;SHT30;64736;50.462;4.850;2023-07-31T15:28:49;17.53;96.49
76040;SHT30;64736;50.462;4.850;2023-07-31T15:31:15;17.45;96.67
76040;SHT30;64736;50.462;4.850;2023-07-31T15:33:41;17.42;96.87
76040;SHT30;64736;50.462;4.850;2023-07-31T15:36:06;17.32;97.13
76040;SHT30;64736;50.462;4.850;2023-07-31T15:38:32;17.24;97.41
76040;SHT30;64736;50.462;4.850;2023-07-31T15:40:58;17.25;97.57
76040;SHT30;64736;50.462;4.850;2023-07-31T15:43:24;17.27;97.80
76040;SHT30;64736;50.462;4.850;2023-07-31T15:45:50;17.32;97.68
76040;SHT30;64736;50.462;4.850;2023-07-31T15:48:15;17.31;97.67
76040;SHT30;64736;50.462;4.850;2023-07-31T15:50:43;17.36;97.79
76040;SHT30;64736;50.462;4.850;2023-07-31T15:53:09;17.32;97.63
76040;SHT30;64736;50.462;4.850;2023-07-31T15:55:35;17.35;97.76
76040;SHT30;64736;50.462;4.850;2023-07-31T15:58:00;17.35;97.83
76040;SHT30;64736;50.462;4.850;2023-07-31T16:00:26;17.34;97.85
76040;SHT30;64736;50.462;4.850;2023-07-31T16:02:51;17.36;97.95
76040;SHT30;64736;50.462;4.850;2023-07-31T16:05:17;17.34;97.84
76040;SHT30;64736;50.462;4.850;2023-07-31T16:07:42;17.32;97.72
76040;SHT30;64736;50.462;4.850;2023-07-31T16:10:08;17.31;97.70
76040;SHT30;64736;50.462;4.850;2023-07-31T16:12:34;17.21;97.72
76040;SHT30;64736;50.462;4.850;2023-07-31T16:15:00;17.24;97.84
76040;SHT30;64736;50.462;4.850;2023-07-31T16:17:25;17.31;97.97
76040;SHT30;64736;50.462;4.850;2023-07-31T16:19:51;17.32;98.12
76040;SHT30;64736;50.462;4.850;2023-07-31T16:22:16;17.36;98.07
76040;SHT30;64736;50.462;4.850;2023-07-31T16:24:42;17.28;97.96
76040;SHT30;64736;50.462;4.850;2023-07-31T16:27:08;17.24;97.91
76040;SHT30;64736;50.462;4.850;2023-07-31T16:29:33;17.22;97.96
76040;SHT30;64736;50.462;4.850;2023-07-31T16:31:59;17.24;97.80
76040;SHT30;64736;50.462;4.850;2023-07-31T16:34:25;17.25;97.98
76040;SHT30;64736;50.462;4.850;2023-07-31T16:36:52;17.25;98.01
76040;SHT30;64736;50.462;4.850;2023-07-31T16:39:19;17.20;97.88
76040;SHT30;64736;50.462;4.850;2023-07-31T16:41:47;17.24;97.92
76040;SHT30;64736;50.462;4.850;2023-07-31T16:44:13;17.25;98.03
76040;SHT30;64736;50.462;4.850;2023-07-31T16:46:41;17.24;97.99
76040;SHT30;64736;50.462;4.850;2023-07-31T16:49:06;17.22;98.19
76040;SHT30;64736;50.462;4.850;2023-07-31T16:51:32;17.28;98.22
76040;SHT30;64736;50.462;4.850;2023-07-31T16:53:57;17.27;98.00
76040;SHT30;64736;50.462;4.850;2023-07-31T16:56:23;17.28;98.16
76040;SHT30;64736;50.462;4.850;2023-07-31T16:58:49;17.14;97.69
76040;SHT30;64736;50.462;4.850;2023-07-31T17:01:14;17.22;98.00
76040;SHT30;64736;50.462;4.850;2023-07-31T17:03:40;17.24;98.18
76040;SHT30;64736;50.462;4.850;2023-07-31T17:06:05;17.25;98.12
76040;SHT30;64736;50.462;4.850;2023-07-31T17:08:31;17.22;98.12
76040;SHT30;64736;50.462;4.850;2023-07-31T17:10:57;17.24;98.12
76040;SHT30;64736;50.462;4.850;2023-07-31T17:13:22;17.28;98.19
76040;SHT30;64736;50.462;4.850;2023-07-31T17:15:48;17.25;98.28
76040;SHT30;64736;50.462;4.850;2023-07-31T17:18:14;17.20;98.44
76040;SHT30;64736;50.462;4.850;2023-07-31T17:20:40;17.13;98.51
76040;SHT30;64736;50.462;4.850;2023-07-31T17:23:05;17.06;98.92
76040;SHT30;64736;50.462;4.850;2023-07-31T17:25:31;17.08;99.13
76040;SHT30;64736;50.462;4.850;2023-07-31T17:27:57;17.04;99.19
76040;SHT30;64736;50.462;4.850;2023-07-31T17:30:22;17.02;99.35
76040;SHT30;64736;50.462;4.850;2023-07-31T17:32:48;17.00;99.37
76040;SHT30;64736;50.462;4.850;2023-07-31T17:35:13;16.99;99.41
76040;SHT30;64736;50.462;4.850;2023-07-31T17:37:39;16.97;99.26
76040;SHT30;64736;50.462;4.850;2023-07-31T17:40:05;17.00;99.17
76040;SHT30;64736;50.462;4.850;2023-07-31T17:42:31;17.02;99.27
76040;SHT30;64736;50.462;4.850;2023-07-31T17:44:56;17.00;99.24
76040;SHT30;64736;50.462;4.850;2023-07-31T17:47:22;17.06;99.35
76040;SHT30;64736;50.462;4.850;2023-07-31T17:49:47;16.99;99.31
76040;SHT30;64736;50.462;4.850;2023-07-31T17:52:13;16.99;99.34
76040;SHT30;64736;50.462;4.850;2023-07-31T17:54:39;17.00;99.44
76040;SHT30;64736;50.462;4.850;2023-07-31T17:57:06;16.97;99.46
76040;SHT30;64736;50.462;4.850;2023-07-31T17:59:31;17.00;99.45
76040;SHT30;64736;50.462;4.850;2023-07-31T18:01:57;17.06;99.39
76040;SHT30;64736;50.462;4.850;2023-07-31T18:04:22;17.03;99.45
76040;SHT30;64736;50.462;4.850;2023-07-31T18:06:48;17.00;99.45
76040;SHT30;64736;50.462;4.850;2023-07-31T18:09:14;17.00;99.45
76040;SHT30;64736;50.462;4.850;2023-07-31T18:11:39;17.02;99.49
76040;SHT30;64736;50.462;4.850;2023-07-31T18:14:05;17.02;99.53
76040;SHT30;64736;50.462;4.850;2023-07-31T18:16:30;17.00;99.58
76040;SHT30;64736;50.462;4.850;2023-07-31T18:18:56;16.99;99.66
76040;SHT30;64736;50.462;4.850;2023-07-31T18:21:22;17.00;99.69
76040;SHT30;64736;50.462;4.850;2023-07-31T18:23:47;17.03;99.72
76040;SHT30;64736;50.462;4.850;2023-07-31T18:26:13;17.02;99.73
76040;SHT30;64736;50.462;4.850;2023-07-31T18:28:39;17.03;99.71
76040;SHT30;64736;50.462;4.850;2023-07-31T18:31:05;17.04;99.61
76040;SHT30;64736;50.462;4.850;2023-07-31T18:33:31;17.02;99.51
76040;SHT30;64736;50.462;4.850;2023-07-31T18:35:57;17.00;99.39
76040;SHT30;64736;50.462;4.850;2023-07-31T18:38:22;17.04;99.49
76040;SHT30;64736;50.462;4.850;2023-07-31T18:40:48;17.08;99.50
76040;SHT30;64736;50.462;4.850;2023-07-31T18:43:14;17.00;99.03
76040;SHT30;64736;50.462;4.850;2023-07-31T18:45:39;17.02;99.27
76040;SHT30;64736;50.462;4.850;2023-07-31T18:48:05;17.02;99.39
76040;SHT30;64736;50.462;4.850;2023-07-31T18:50:31;17.03;99.40
76040;SHT30;64736;50.462;4.850;2023-07-31T18:52:56;17.07;99.51
76040;SHT30;64736;50.462;4.850;2023-07-31T18:55:22;17.07;99.46
76040;SHT30;64736;50.462;4.850;2023-07-31T18:57:50;17.04;99.40
76040;SHT30;64736;50.462;4.850;2023-07-31T19:00:16;17.10;99.42
76040;SHT30;64736;50.462;4.850;2023-07-31T19:02:41;17.07;99.29
76040;SHT30;64736;50.462;4.850;2023-07-31T19:05:07;17.11;99.31
76040;SHT30;64736;50.462;4.850;2023-07-31T19:07:33;17.08;99.23
76040;SHT30;64736;50.462;4.850;2023-07-31T19:09:59;17.07;99.23
76040;SHT30;64736;50.462;4.850;2023-07-31T19:12:25;17.04;99.20
76040;SHT30;64736;50.462;4.850;2023-07-31T19:14:51;17.06;99.28
76040;SHT30;64736;50.462;4.850;2023-07-31T19:17:17;17.03;99.37
76040;SHT30;64736;50.462;4.850;2023-07-31T19:19:42;17.00;99.38
76040;SHT30;64736;50.462;4.850;2023-07-31T19:22:08;17.06;99.46
76040;SHT30;64736;50.462;4.850;2023-07-31T19:24:34;17.03;99.49
76040;SHT30;64736;50.462;4.850;2023-07-31T19:27:00;17.04;99.53
76040;SHT30;64736;50.462;4.850;2023-07-31T19:29:26;17.08;99.54
76040;SHT30;64736;50.462;4.850;2023-07-31T19:31:51;17.04;99.47
76040;SHT30;64736;50.462;4.850;2023-07-31T19:34:17;17.06;99.50
76040;SHT30;64736;50.462;4.850;2023-07-31T19:36:43;17.04;99.50
76040;SHT30;64736;50.462;4.850;2023-07-31T19:39:09;17.03;99.48
76040;SHT30;64736;50.462;4.850;2023-07-31T19:41:35;17.02;99.40
76040;SHT30;64736;50.462;4.850;2023-07-31T19:44:04;17.03;99.37
76040;SHT30;64736;50.462;4.850;2023-07-31T19:46:29;17.04;99.36
76040;SHT30;64736;50.462;4.850;2023-07-31T19:48:58;17.00;99.34
76040;SHT30;64736;50.462;4.850;2023-07-31T19:51:24;17.02;99.44
76040;SHT30;64736;50.462;4.850;2023-07-31T19:53:50;17.00;99.57
76040;SHT30;64736;50.462;4.850;2023-07-31T19:56:15;17.00;99.63